sim
Sign-in with your pilot id or email,
or register
Callsign
Passwort

Schedule Details

Flight Number: DLH761
Departure: Delhi Indira Gandhi International Airport (VIDP) at 22:05
Arrival: Frankfurt Airport (EDDF) at 06:35
Route: Lufthansa Passenger Schedule. Enter filed route here before submitting Pirep.

Weather Information
Getting current METAR information for VIDP 271700Z 00000KT 2500 FU NSC 21/15 Q1013 NOSIG
Getting current METAR information for EDDF 271650Z 18008KT 9999 FEW020 11/06 Q1009 NOSIG

Schedule Frequency

Route Map